Terminal Aerodrome Forecast
Issued by NWS St Louis, MO

Home | Current Version | Previous Version | Text Only | Print | Product List | Glossary On
Versions: 1 2 3 4 5 6 7 8 9 10 11 12 13
000
FTUS43 KLSX 171500 AAA
TAFCOU
TAF AMD
KCOU 171500Z 1715/1812 31014KT P6SM SCT040
     FM171700 29015G25KT P6SM BKN040
     FM180000 32010KT P6SM SCT040=

USA.gov is the U.S. government's official web portal to all federal, state and local government web resources and services.